Time;durP1;ratioP1;P1;durP2;ratioP2;P2;SDS_P1;SDS_P2;PMS_P1;PMS_P2;Temp;Humidity;BMP_temperature;BMP_pressure;BME280_temperature;BME280_humidity;BME280_pressure;Samples;Min_cycle;Max_cycle;Signal;HPM_P1;HPM_P2
2022/09/22 00:01:59;;;;;;;5.50;5.00;;;;;;;;;;5032003;28;20381;-78
2022/09/22 00:04:26;;;;;;;5.55;5.05;;;;;;;;;;5033170;28;20381;-79
2022/09/22 00:06:54;;;;;;;5.70;5.20;;;;;;;;;;5031912;28;20021;-78
2022/09/22 00:09:20;;;;;;;5.93;5.43;;;;;;;;;;5033265;28;20051;-78
2022/09/22 00:11:48;;;;;;;5.75;5.25;;;;;;;;;;5033201;28;20021;-78
2022/09/22 00:14:14;;;;;;;5.57;5.07;;;;;;;;;;5033035;28;20049;-79
2022/09/22 00:16:45;;;;;;;5.57;4.95;;;;;;;;;;5033123;28;20029;-78
2022/09/22 00:19:23;;;;;;;5.75;5.25;;;;;;;;;;5033086;28;20095;-78
2022/09/22 00:21:50;;;;;;;6.32;5.25;;;;;;;;;;5032966;28;20087;-78
2022/09/22 00:24:16;;;;;;;5.75;5.22;;;;;;;;;;5033132;28;20041;-79
2022/09/22 00:26:42;;;;;;;6.03;5.18;;;;;;;;;;5033043;28;20049;-78
2022/09/22 00:29:09;;;;;;;5.82;5.22;;;;;;;;;;5033035;28;20384;-78
2022/09/22 00:31:36;;;;;;;5.72;5.25;;;;;;;;;;5033009;28;20029;-78
2022/09/22 00:34:03;;;;;;;6.57;5.97;;;;;;;;;;5033003;28;20400;-78
2022/09/22 00:36:30;;;;;;;7.18;5.50;;;;;;;;;;5033322;28;20457;-77
2022/09/22 00:38:57;;;;;;;5.95;5.45;;;;;;;;;;5032923;28;20033;-78
2022/09/22 00:41:24;;;;;;;5.80;5.20;;;;;;;;;;5033227;28;20037;-77
2022/09/22 00:44:11;;;;;;;6.43;5.65;;;;;;;;;;5036484;28;20120;-77
2022/09/22 00:46:38;;;;;;;6.03;5.43;;;;;;;;;;5036572;28;20080;-77
2022/09/22 00:49:08;;;;;;;6.15;5.53;;;;;;;;;;5036370;28;20049;-77
2022/09/22 00:51:36;;;;;;;5.38;4.97;;;;;;;;;;5036469;28;20384;-79
2022/09/22 00:54:04;;;;;;;5.47;4.97;;;;;;;;;;5036452;28;20040;-78
2022/09/22 00:56:35;;;;;;;6.20;5.60;;;;;;;;;;5036259;28;20527;-79
2022/09/22 00:59:04;;;;;;;6.40;5.80;;;;;;;;;;5035256;28;20118;-78
2022/09/22 01:01:35;;;;;;;6.35;5.75;;;;;;;;;;5036291;28;20511;-78
2022/09/22 01:04:02;;;;;;;6.55;5.97;;;;;;;;;;5036134;28;20497;-78
2022/09/22 01:06:31;;;;;;;6.00;5.50;;;;;;;;;;5036499;28;20433;-78
2022/09/22 01:12:11;;;;;;;6.53;5.75;;;;;;;;;;5033269;28;20053;-78
2022/09/22 01:15:10;;;;;;;5.85;5.30;;;;;;;;;;5036160;28;20036;-78
2022/09/22 01:17:59;;;;;;;6.45;5.85;;;;;;;;;;4975069;28;20031;-78
2022/09/22 01:20:48;;;;;;;6.60;6.00;;;;;;;;;;4992228;28;20025;-79
2022/09/22 01:23:42;;;;;;;6.43;5.82;;;;;;;;;;5033902;28;20452;-79
2022/09/22 01:26:31;;;;;;;6.28;5.68;;;;;;;;;;5035868;28;20611;-78
2022/09/22 01:29:16;;;;;;;6.38;5.88;;;;;;;;;;5035487;28;20038;-78
2022/09/22 01:31:45;;;;;;;6.47;5.97;;;;;;;;;;5035726;28;20029;-80
2022/09/22 01:34:17;;;;;;;7.63;6.93;;;;;;;;;;5035827;28;20034;-79
2022/09/22 01:37:01;;;;;;;7.10;6.50;;;;;;;;;;5035728;28;20495;-79
2022/09/22 01:39:30;;;;;;;6.82;6.30;;;;;;;;;;5035742;28;20060;-79
2022/09/22 01:42:04;;;;;;;7.55;6.75;;;;;;;;;;5034402;28;20053;-78
2022/09/22 01:44:36;;;;;;;6.82;6.13;;;;;;;;;;5034284;28;20033;-77
2022/09/22 01:47:02;;;;;;;7.97;7.00;;;;;;;;;;5035472;28;20385;-77
2022/09/22 01:49:33;;;;;;;7.15;6.45;;;;;;;;;;5035354;28;20034;-78
2022/09/22 01:52:19;;;;;;;6.85;6.25;;;;;;;;;;5035554;28;20030;-78
2022/09/22 01:54:56;;;;;;;6.88;6.28;;;;;;;;;;5016584;28;20120;-78
2022/09/22 01:57:30;;;;;;;6.72;6.10;;;;;;;;;;5035091;28;20045;-79
2022/09/22 02:00:10;;;;;;;8.27;7.47;;;;;;;;;;5035220;28;20037;-79
2022/09/22 02:02:55;;;;;;;7.50;6.80;;;;;;;;;;5035113;28;20037;-78
2022/09/22 02:05:25;;;;;;;7.45;6.75;;;;;;;;;;5035005;28;20034;-80
2022/09/22 02:07:53;;;;;;;8.27;7.57;;;;;;;;;;5034914;28;20033;-78
2022/09/22 02:10:22;;;;;;;9.00;8.20;;;;;;;;;;5035106;28;20040;-79
2022/09/22 02:12:48;;;;;;;8.50;7.60;;;;;;;;;;5034845;28;20365;-79
2022/09/22 02:18:02;;;;;;;8.73;7.93;;;;;;;;;;5034841;28;20129;-79
2022/09/22 02:20:28;;;;;;;8.00;7.30;;;;;;;;;;5034837;28;20041;-78
2022/09/22 02:22:54;;;;;;;8.00;7.30;;;;;;;;;;5034608;28;20033;-78
2022/09/22 02:25:23;;;;;;;8.52;7.72;;;;;;;;;;5034618;28;20042;-78
2022/09/22 02:27:53;;;;;;;7.88;7.18;;;;;;;;;;5034650;28;20037;-78
2022/09/22 02:30:19;;;;;;;8.98;8.27;;;;;;;;;;5034659;28;20030;-78
2022/09/22 02:32:47;;;;;;;8.25;7.55;;;;;;;;;;5034514;28;20033;-79
2022/09/22 02:35:14;;;;;;;9.00;8.10;;;;;;;;;;5034492;28;20084;-78
2022/09/22 02:37:50;;;;;;;9.07;8.18;;;;;;;;;;5034490;28;20057;-78
2022/09/22 02:40:31;;;;;;;9.38;8.57;;;;;;;;;;5034490;28;20113;-79
2022/09/22 02:43:07;;;;;;;9.23;8.32;;;;;;;;;;5034391;28;20048;-78
2022/09/22 02:45:37;;;;;;;8.52;7.72;;;;;;;;;;5034306;28;20109;-79
2022/09/22 02:48:09;;;;;;;8.88;7.97;;;;;;;;;;5034405;28;20380;-79
2022/09/22 02:50:35;;;;;;;8.40;7.60;;;;;;;;;;5034125;28;20445;-78
2022/09/22 02:53:02;;;;;;;8.05;7.25;;;;;;;;;;5034181;28;20385;-77
2022/09/22 02:55:28;;;;;;;8.00;7.30;;;;;;;;;;5034198;28;20034;-78
2022/09/22 02:57:54;;;;;;;7.60;6.90;;;;;;;;;;5034056;28;20091;-79
2022/09/22 03:00:21;;;;;;;8.10;7.30;;;;;;;;;;5034155;28;20061;-78
2022/09/22 03:02:47;;;;;;;8.38;7.68;;;;;;;;;;5033908;28;20131;-78
2022/09/22 03:05:13;;;;;;;7.78;7.07;;;;;;;;;;5033888;28;20035;-78
2022/09/22 03:07:39;;;;;;;8.60;7.80;;;;;;;;;;5033852;28;20087;-79
2022/09/22 03:10:06;;;;;;;8.15;7.45;;;;;;;;;;5034056;28;20133;-78
2022/09/22 03:12:32;;;;;;;8.60;7.82;;;;;;;;;;5033800;28;20476;-78
2022/09/22 03:14:59;;;;;;;9.50;8.60;;;;;;;;;;5033897;28;20057;-78
2022/09/22 03:17:25;;;;;;;8.75;7.95;;;;;;;;;;5033684;28;20491;-78
2022/09/22 03:19:51;;;;;;;8.45;7.63;;;;;;;;;;5033727;28;20068;-80
2022/09/22 03:22:17;;;;;;;9.85;8.90;;;;;;;;;;5033790;28;20033;-78
2022/09/22 03:24:43;;;;;;;10.70;9.63;;;;;;;;;;5033313;28;20050;-78
2022/09/22 03:27:09;;;;;;;9.80;8.25;;;;;;;;;;5033622;28;20060;-78
2022/09/22 03:29:35;;;;;;;9.27;8.48;;;;;;;;;;5033566;28;20080;-78
2022/09/22 03:32:01;;;;;;;9.27;8.38;;;;;;;;;;5033544;28;20029;-78
2022/09/22 03:34:27;;;;;;;9.45;8.55;;;;;;;;;;5033629;28;20547;-78
2022/09/22 03:36:53;;;;;;;9.82;8.80;;;;;;;;;;5033505;28;20057;-78
2022/09/22 03:39:20;;;;;;;9.48;8.50;;;;;;;;;;5033412;28;20030;-79
2022/09/22 03:41:46;;;;;;;9.55;8.68;;;;;;;;;;5033212;28;20429;-79
2022/09/22 03:44:12;;;;;;;9.98;9.07;;;;;;;;;;5033297;28;20048;-79
2022/09/22 03:46:38;;;;;;;9.75;8.65;;;;;;;;;;5033305;28;20036;-79
2022/09/22 03:49:04;;;;;;;8.30;7.47;;;;;;;;;;5033450;28;20032;-79
2022/09/22 03:51:30;;;;;;;9.70;8.82;;;;;;;;;;5033222;28;20029;-79
2022/09/22 03:53:56;;;;;;;9.73;8.88;;;;;;;;;;5033462;28;20061;-79
2022/09/22 03:56:22;;;;;;;9.05;8.25;;;;;;;;;;5032054;28;20354;-79
2022/09/22 03:58:48;;;;;;;9.50;8.60;;;;;;;;;;5032573;28;20065;-79
2022/09/22 04:01:15;;;;;;;9.10;7.65;;;;;;;;;;5033002;28;20488;-79
2022/09/22 04:03:41;;;;;;;6.78;6.18;;;;;;;;;;5032797;28;20041;-79
2022/09/22 04:06:07;;;;;;;7.50;6.47;;;;;;;;;;5033188;28;20029;-78
2022/09/22 04:08:34;;;;;;;7.13;6.43;;;;;;;;;;5033032;28;20052;-79
2022/09/22 04:11:02;;;;;;;10.27;7.13;;;;;;;;;;5032836;28;20439;-79
2022/09/22 04:13:50;;;;;;;7.00;6.40;;;;;;;;;;5033270;28;20029;-79
2022/09/22 04:16:32;;;;;;;7.25;6.57;;;;;;;;;;5032124;28;20037;-78
2022/09/22 04:19:08;;;;;;;6.35;5.75;;;;;;;;;;5016212;28;20026;-79
2022/09/22 04:21:37;;;;;;;6.75;6.15;;;;;;;;;;5016650;28;20088;-78
2022/09/22 04:24:07;;;;;;;6.20;5.63;;;;;;;;;;5005663;28;20050;-78
2022/09/22 04:26:45;;;;;;;7.15;6.40;;;;;;;;;;4997267;28;20066;-78
2022/09/22 04:29:11;;;;;;;7.45;6.70;;;;;;;;;;4997414;28;20378;-78
2022/09/22 04:31:37;;;;;;;6.93;6.22;;;;;;;;;;4996979;28;20038;-79
2022/09/22 04:34:16;;;;;;;7.32;6.63;;;;;;;;;;4997457;28;20034;-79
2022/09/22 04:36:42;;;;;;;7.80;7.00;;;;;;;;;;4997150;28;20077;-79
2022/09/22 04:39:08;;;;;;;8.13;7.32;;;;;;;;;;4997374;28;20076;-79
2022/09/22 04:41:34;;;;;;;8.05;7.13;;;;;;;;;;4997224;28;20066;-79
2022/09/22 04:44:00;;;;;;;9.50;8.52;;;;;;;;;;4997115;28;20046;-79
2022/09/22 04:46:26;;;;;;;8.15;7.43;;;;;;;;;;4996758;28;20037;-79
2022/09/22 04:48:53;;;;;;;8.75;7.95;;;;;;;;;;4996785;28;20113;-78
2022/09/22 04:51:19;;;;;;;7.18;6.47;;;;;;;;;;4997026;28;20034;-78
2022/09/22 04:53:45;;;;;;;8.10;6.88;;;;;;;;;;4980020;28;20038;-79
2022/09/22 04:56:11;;;;;;;7.28;6.57;;;;;;;;;;4996974;28;20070;-79
2022/09/22 04:58:37;;;;;;;7.30;6.60;;;;;;;;;;4996635;28;20042;-77
2022/09/22 05:01:04;;;;;;;6.85;6.25;;;;;;;;;;4996921;28;20095;-77
2022/09/22 05:03:31;;;;;;;6.05;5.55;;;;;;;;;;4996704;28;20536;-77
2022/09/22 05:05:57;;;;;;;6.63;5.60;;;;;;;;;;4996771;28;20034;-78
2022/09/22 05:08:23;;;;;;;6.53;5.88;;;;;;;;;;4996766;28;20035;-77
2022/09/22 05:10:49;;;;;;;6.00;5.35;;;;;;;;;;4996427;28;20038;-79
2022/09/22 05:13:15;;;;;;;5.47;4.97;;;;;;;;;;4996655;28;20031;-77
2022/09/22 05:15:41;;;;;;;6.55;5.90;;;;;;;;;;4996352;28;20035;-77
2022/09/22 05:18:16;;;;;;;6.25;5.68;;;;;;;;;;4996703;28;20034;-78
2022/09/22 05:20:43;;;;;;;6.60;6.00;;;;;;;;;;4997544;28;20022;-78
2022/09/22 05:23:10;;;;;;;6.55;5.95;;;;;;;;;;5016074;28;20044;-78
2022/09/22 05:25:37;;;;;;;6.13;5.53;;;;;;;;;;5035190;28;20060;-77
2022/09/22 05:28:03;;;;;;;5.97;5.38;;;;;;;;;;5031608;28;20026;-78
2022/09/22 05:30:29;;;;;;;6.88;6.18;;;;;;;;;;5034094;28;20492;-78
2022/09/22 05:32:56;;;;;;;6.25;5.22;;;;;;;;;;5034400;28;20037;-78
2022/09/22 05:35:23;;;;;;;6.20;5.60;;;;;;;;;;5036696;28;20044;-77
2022/09/22 05:37:50;;;;;;;6.45;5.85;;;;;;;;;;5032016;28;20080;-78
2022/09/22 05:40:16;;;;;;;6.03;5.53;;;;;;;;;;5035484;28;20037;-78
2022/09/22 05:42:43;;;;;;;6.10;5.47;;;;;;;;;;5044596;28;20456;-80
2022/09/22 05:45:10;;;;;;;5.93;5.43;;;;;;;;;;5032541;28;20038;-80
2022/09/22 05:47:36;;;;;;;5.95;5.40;;;;;;;;;;5029283;28;20041;-78
2022/09/22 05:50:03;;;;;;;5.57;5.05;;;;;;;;;;5033927;28;20493;-78
2022/09/22 05:52:29;;;;;;;6.72;5.80;;;;;;;;;;5035002;28;20132;-78
2022/09/22 05:54:56;;;;;;;5.45;5.00;;;;;;;;;;5031644;28;20049;-76
2022/09/22 05:57:24;;;;;;;6.10;5.60;;;;;;;;;;5032870;28;20049;-76
2022/09/22 05:59:51;;;;;;;6.38;5.78;;;;;;;;;;5032571;28;20160;-77
2022/09/22 06:02:17;;;;;;;6.13;5.60;;;;;;;;;;5035602;28;20030;-77
2022/09/22 06:04:43;;;;;;;6.30;5.70;;;;;;;;;;5028029;28;20103;-76
2022/09/22 06:07:09;;;;;;;6.50;5.90;;;;;;;;;;5034026;28;20046;-77
2022/09/22 06:09:38;;;;;;;5.53;5.03;;;;;;;;;;5032287;28;20488;-78
2022/09/22 06:12:10;;;;;;;6.40;5.80;;;;;;;;;;5033512;28;20069;-77
2022/09/22 06:14:36;;;;;;;6.22;5.45;;;;;;;;;;5026912;28;20045;-76
2022/09/22 06:17:03;;;;;;;8.18;6.22;;;;;;;;;;5032325;28;20428;-78
2022/09/22 06:19:29;;;;;;;5.82;5.32;;;;;;;;;;5030828;28;20477;-77
2022/09/22 06:21:55;;;;;;;6.25;5.65;;;;;;;;;;5027178;28;20038;-78
2022/09/22 06:24:23;;;;;;;6.38;5.72;;;;;;;;;;5023998;28;20062;-77
2022/09/22 06:26:49;;;;;;;6.15;5.65;;;;;;;;;;5022759;28;20128;-79
2022/09/22 06:29:16;;;;;;;5.75;5.25;;;;;;;;;;5031705;28;20113;-78
2022/09/22 06:31:42;;;;;;;5.55;5.05;;;;;;;;;;5026013;28;20051;-78
2022/09/22 06:34:10;;;;;;;5.60;5.10;;;;;;;;;;5032986;28;20124;-78
2022/09/22 06:36:36;;;;;;;5.63;5.05;;;;;;;;;;5029317;28;20424;-77
2022/09/22 06:39:04;;;;;;;6.18;5.45;;;;;;;;;;5038519;28;20411;-77
2022/09/22 06:41:31;;;;;;;5.50;4.35;;;;;;;;;;5028208;28;20531;-78
2022/09/22 06:43:58;;;;;;;5.18;4.68;;;;;;;;;;5031348;28;20069;-77
2022/09/22 06:46:25;;;;;;;5.78;5.28;;;;;;;;;;5031437;28;20040;-78
2022/09/22 06:48:56;;;;;;;5.20;4.70;;;;;;;;;;5030669;28;20041;-78
2022/09/22 06:51:26;;;;;;;4.82;4.43;;;;;;;;;;5036140;28;20060;-77
2022/09/22 06:53:56;;;;;;;4.28;3.85;;;;;;;;;;5037879;28;20037;-77
2022/09/22 06:56:42;;;;;;;3.85;3.55;;;;;;;;;;5030546;28;20488;-78
2022/09/22 06:59:15;;;;;;;3.47;3.17;;;;;;;;;;5035314;28;20038;-78
2022/09/22 07:01:42;;;;;;;4.47;4.00;;;;;;;;;;5033282;28;20531;-78
2022/09/22 07:04:08;;;;;;;4.22;3.80;;;;;;;;;;5012807;28;20413;-77
2022/09/22 07:06:36;;;;;;;3.95;3.65;;;;;;;;;;5031915;28;20108;-77
2022/09/22 07:09:02;;;;;;;4.80;4.40;;;;;;;;;;5011981;28;20076;-75
2022/09/22 07:11:29;;;;;;;5.75;4.40;;;;;;;;;;5011829;28;20030;-76
2022/09/22 07:13:55;;;;;;;3.90;3.58;;;;;;;;;;5022395;28;20030;-78
2022/09/22 07:16:23;;;;;;;8.95;3.70;;;;;;;;;;5024353;28;20574;-79
2022/09/22 07:18:50;;;;;;;4.13;3.83;;;;;;;;;;5029803;28;20045;-78
2022/09/22 07:21:21;;;;;;;3.70;3.40;;;;;;;;;;5026139;28;20087;-78
2022/09/22 07:23:48;;;;;;;7.13;5.43;;;;;;;;;;5030214;28;20117;-79
2022/09/22 07:26:16;;;;;;;3.30;3.00;;;;;;;;;;5031155;28;20034;-77
2022/09/22 07:28:45;;;;;;;2.70;2.50;;;;;;;;;;5030865;28;20038;-77
2022/09/22 07:31:12;;;;;;;3.47;2.88;;;;;;;;;;5035627;28;20097;-77
2022/09/22 07:33:41;;;;;;;2.70;2.22;;;;;;;;;;5024406;28;20042;-77
2022/09/22 07:36:11;;;;;;;4.25;3.00;;;;;;;;;;5037710;28;20501;-77
2022/09/22 07:38:38;;;;;;;3.88;2.92;;;;;;;;;;5038151;28;20500;-77
2022/09/22 07:41:06;;;;;;;3.03;2.72;;;;;;;;;;5031092;28;20037;-77
2022/09/22 07:43:33;;;;;;;3.47;2.40;;;;;;;;;;5024861;28;20045;-76
2022/09/22 07:45:59;;;;;;;3.40;3.10;;;;;;;;;;5034733;28;20061;-78
2022/09/22 07:48:36;;;;;;;3.60;3.10;;;;;;;;;;5037134;28;20029;-79
2022/09/22 07:51:08;;;;;;;4.43;3.47;;;;;;;;;;5033582;28;20116;-78
2022/09/22 07:53:41;;;;;;;3.17;2.90;;;;;;;;;;5032764;28;20041;-77
2022/09/22 07:56:13;;;;;;;2.50;2.30;;;;;;;;;;5036830;28;20051;-80
2022/09/22 07:58:41;;;;;;;2.67;2.47;;;;;;;;;;5037037;28;20025;-78
2022/09/22 08:01:08;;;;;;;3.20;2.85;;;;;;;;;;5033474;28;20033;-78
2022/09/22 08:03:36;;;;;;;2.55;2.35;;;;;;;;;;5030952;28;20030;-77
2022/09/22 08:06:09;;;;;;;2.83;2.50;;;;;;;;;;5029661;28;20038;-77
2022/09/22 08:08:35;;;;;;;2.60;2.40;;;;;;;;;;5030496;28;20033;-77
2022/09/22 08:11:12;;;;;;;3.65;3.20;;;;;;;;;;5030808;28;20449;-78
2022/09/22 08:13:39;;;;;;;3.33;2.40;;;;;;;;;;5030561;28;20515;-77
2022/09/22 08:16:05;;;;;;;3.80;2.58;;;;;;;;;;5025738;28;20515;-76
2022/09/22 08:18:32;;;;;;;2.33;2.13;;;;;;;;;;5029803;28;20060;-75
2022/09/22 08:21:03;;;;;;;2.33;2.13;;;;;;;;;;5016973;28;20115;-75
2022/09/22 08:23:30;;;;;;;1.90;1.77;;;;;;;;;;5040030;28;20116;-76
2022/09/22 08:25:57;;;;;;;2.70;2.50;;;;;;;;;;5039858;28;20090;-76
2022/09/22 08:28:23;;;;;;;3.08;2.25;;;;;;;;;;5039466;28;20033;-79
2022/09/22 08:30:51;;;;;;;2.78;2.25;;;;;;;;;;5041228;28;20087;-77
2022/09/22 08:33:18;;;;;;;2.58;2.38;;;;;;;;;;5037079;28;20366;-77
2022/09/22 08:36:03;;;;;;;4.43;2.45;;;;;;;;;;5027991;28;20497;-77
2022/09/22 08:38:29;;;;;;;;;;;;;;;;;;5038073;28;20033;-77
2022/09/22 08:41:03;;;;;;;3.97;2.30;;;;;;;;;;5037959;28;19905;-77
2022/09/22 08:43:30;;;;;;;2.38;2.10;;;;;;;;;;5037045;28;20033;-77
2022/09/22 08:45:57;;;;;;;2.40;2.08;;;;;;;;;;5039609;28;20373;-79
2022/09/22 08:54:01;;;;;;;2.10;1.75;;;;;;;;;;5021424;28;20062;-77
2022/09/22 08:56:32;;;;;;;2.40;2.17;;;;;;;;;;5030386;28;20034;-76
2022/09/22 08:58:58;;;;;;;3.03;1.85;;;;;;;;;;5010704;28;20036;-77
2022/09/22 09:01:30;;;;;;;2.30;2.10;;;;;;;;;;5035030;28;20080;-76
2022/09/22 09:04:10;;;;;;;2.53;2.33;;;;;;;;;;5030626;28;20543;-77
2022/09/22 09:06:46;;;;;;;2.60;2.40;;;;;;;;;;5034313;28;20069;-77
2022/09/22 09:09:20;;;;;;;2.33;2.13;;;;;;;;;;5038911;28;20718;-79
2022/09/22 09:12:06;;;;;;;2.38;1.90;;;;;;;;;;5035802;28;20033;-77
2022/09/22 09:14:41;;;;;;;2.55;2.03;;;;;;;;;;5026385;28;20044;-76
2022/09/22 09:17:15;;;;;;;2.28;2.08;;;;;;;;;;5034973;28;20029;-77
2022/09/22 09:19:47;;;;;;;;;;;;;;;;;;5025026;28;20050;-79
2022/09/22 09:22:25;;;;;;;2.58;2.25;;;;;;;;;;5040207;28;19911;-79
2022/09/22 09:25:12;;;;;;;2.30;2.10;;;;;;;;;;5040573;28;20491;-77
2022/09/22 09:27:40;;;;;;;2.30;2.10;;;;;;;;;;5005239;28;20042;-78
2022/09/22 09:30:11;;;;;;;2.58;2.38;;;;;;;;;;5033420;28;20029;-78
2022/09/22 09:32:56;;;;;;;2.53;2.25;;;;;;;;;;5034649;28;20037;-82
2022/09/22 09:35:25;;;;;;;1.95;1.85;;;;;;;;;;5035636;28;20411;-76
2022/09/22 09:37:59;;;;;;;2.65;2.08;;;;;;;;;;5040376;28;20060;-78
2022/09/22 09:40:26;;;;;;;2.05;1.80;;;;;;;;;;5032875;28;20150;-78
2022/09/22 09:43:03;;;;;;;2.30;2.10;;;;;;;;;;5030852;28;20038;-74
2022/09/22 09:45:44;;;;;;;2.67;2.47;;;;;;;;;;5031232;28;20115;-77
2022/09/22 09:48:23;;;;;;;2.25;1.90;;;;;;;;;;5035916;28;20507;-78
2022/09/22 09:50:49;;;;;;;1.83;1.73;;;;;;;;;;5032700;28;20164;-77
2022/09/22 09:53:34;;;;;;;2.15;1.55;;;;;;;;;;5033302;28;20032;-76
2022/09/22 09:56:00;;;;;;;;;;;;;;;;;;5025027;28;20036;-77
2022/09/22 10:01:12;;;;;;;2.22;2.03;;;;;;;;;;5032657;28;20124;-76
2022/09/22 10:03:53;;;;;;;2.00;1.80;;;;;;;;;;5031816;28;20037;-80
2022/09/22 10:06:24;;;;;;;1.67;1.55;;;;;;;;;;5039568;28;20396;-78
2022/09/22 10:08:50;;;;;;;2.13;1.92;;;;;;;;;;5038386;28;20056;-78
2022/09/22 10:11:27;;;;;;;2.30;1.50;;;;;;;;;;5036870;28;20038;-76
2022/09/22 10:13:55;;;;;;;2.08;1.45;;;;;;;;;;5034532;28;20132;-76
2022/09/22 10:16:24;;;;;;;2.00;1.80;;;;;;;;;;5032387;28;20167;-80
2022/09/22 10:19:12;;;;;;;3.88;1.90;;;;;;;;;;5032624;28;20048;-78
2022/09/22 10:21:38;;;;;;;2.15;1.77;;;;;;;;;;5016539;28;20045;-78
2022/09/22 10:24:21;;;;;;;2.28;1.85;;;;;;;;;;5024354;28;20508;-78
2022/09/22 10:26:54;;;;;;;2.95;1.50;;;;;;;;;;5004510;28;20117;-79
2022/09/22 10:29:21;;;;;;;2.07;1.60;;;;;;;;;;5010247;28;20087;-77
2022/09/22 10:32:07;;;;;;;2.75;1.98;;;;;;;;;;5018906;28;20030;-78
2022/09/22 10:34:37;;;;;;;1.90;1.70;;;;;;;;;;4999671;28;20425;-78
2022/09/22 10:37:08;;;;;;;2.25;1.90;;;;;;;;;;5006812;28;20041;-78
2022/09/22 10:39:50;;;;;;;2.20;2.05;;;;;;;;;;5018594;28;20068;-76
2022/09/22 10:42:26;;;;;;;1.85;1.65;;;;;;;;;;5001629;28;20034;-78
2022/09/22 10:44:52;;;;;;;1.27;1.17;;;;;;;;;;5022210;28;20026;-80
2022/09/22 10:47:18;;;;;;;2.85;2.00;;;;;;;;;;5021620;28;20022;-78
2022/09/22 10:49:48;;;;;;;1.73;1.58;;;;;;;;;;5021908;28;20029;-77
2022/09/22 10:52:34;;;;;;;2.33;2.08;;;;;;;;;;5011225;28;20045;-76
2022/09/22 10:55:03;;;;;;;1.85;1.63;;;;;;;;;;5020305;28;20510;-77
2022/09/22 10:57:48;;;;;;;1.70;1.60;;;;;;;;;;5023250;28;20037;-77
2022/09/22 11:00:14;;;;;;;2.42;1.65;;;;;;;;;;5015741;28;20039;-78
2022/09/22 11:03:02;;;;;;;1.90;1.52;;;;;;;;;;5021304;28;20033;-78
2022/09/22 11:14:17;;;;;;;4.43;2.42;;;;;;;;;;5007798;28;20056;-78
2022/09/22 11:17:02;;;;;;;4.25;2.80;;;;;;;;;;5013546;28;20037;-77
2022/09/22 11:19:28;;;;;;;;;;;;;;;;;;5019380;28;20138;-76
2022/09/22 11:21:54;;;;;;;2.10;1.83;;;;;;;;;;5010773;28;20364;-77
2022/09/22 11:24:39;;;;;;;2.30;1.42;;;;;;;;;;5019830;28;20775;-76
2022/09/22 11:27:10;;;;;;;1.52;1.42;;;;;;;;;;5027138;28;20041;-78
2022/09/22 11:29:40;;;;;;;2.88;1.25;;;;;;;;;;5037905;28;21128;-80
2022/09/22 11:32:09;;;;;;;2.50;1.67;;;;;;;;;;5036650;28;20033;-78
2022/09/22 11:34:45;;;;;;;1.35;1.10;;;;;;;;;;5032254;28;20041;-77
2022/09/22 11:37:26;;;;;;;2.80;1.23;;;;;;;;;;5035597;28;20094;-78
2022/09/22 11:39:55;;;;;;;2.40;1.65;;;;;;;;;;5011630;28;20041;-76
2022/09/22 11:42:40;;;;;;;1.52;1.42;;;;;;;;;;5035763;28;20458;-79
2022/09/22 11:45:14;;;;;;;1.67;1.55;;;;;;;;;;5034317;28;20034;-77
2022/09/22 11:47:40;;;;;;;2.23;1.83;;;;;;;;;;5038653;28;20077;-77
2022/09/22 11:50:25;;;;;;;1.42;1.33;;;;;;;;;;5038270;28;20554;-78
2022/09/22 11:53:10;;;;;;;1.35;1.00;;;;;;;;;;5038718;28;20080;-78
2022/09/22 11:55:57;;;;;;;2.47;1.10;;;;;;;;;;5040313;28;20036;-77
2022/09/22 11:58:25;;;;;;;1.35;1.20;;;;;;;;;;5036397;28;20037;-79
2022/09/22 12:01:02;;;;;;;1.95;1.58;;;;;;;;;;5023511;28;20037;-79
2022/09/22 12:03:43;;;;;;;1.95;1.70;;;;;;;;;;5033945;28;20032;-77
2022/09/22 12:06:12;;;;;;;1.60;1.40;;;;;;;;;;5026114;28;20033;-79
2022/09/22 12:08:48;;;;;;;2.13;1.88;;;;;;;;;;5012398;28;20100;-77
2022/09/22 12:11:16;;;;;;;1.60;1.33;;;;;;;;;;5036127;28;20030;-77
2022/09/22 12:13:44;;;;;;;1.83;1.65;;;;;;;;;;5037368;28;20373;-77
2022/09/22 12:16:10;;;;;;;106.97;38.63;;;;;;;;;;5030220;28;20033;-79
2022/09/22 12:18:40;;;;;;;45.97;18.83;;;;;;;;;;5037732;28;20068;-81
2022/09/22 12:21:26;;;;;;;37.25;16.80;;;;;;;;;;5038981;28;20040;-78
2022/09/22 12:23:53;;;;;;;56.53;21.88;;;;;;;;;;5031447;28;20045;-79
2022/09/22 12:26:32;;;;;;;1.65;1.45;;;;;;;;;;5036421;28;20045;-81
2022/09/22 12:28:59;;;;;;;1.75;1.13;;;;;;;;;;5041234;28;20376;-79
2022/09/22 12:31:36;;;;;;;2.53;1.30;;;;;;;;;;5037434;28;20507;-79
2022/09/22 12:34:03;;;;;;;1.45;1.02;;;;;;;;;;5040528;28;20064;-78
2022/09/22 12:36:35;;;;;;;1.48;1.00;;;;;;;;;;5037917;28;20032;-77
2022/09/22 12:39:19;;;;;;;1.80;0.88;;;;;;;;;;5043301;28;20404;-77
2022/09/22 12:42:04;;;;;;;0.90;0.90;;;;;;;;;;5055462;28;20045;-79
2022/09/22 12:44:30;;;;;;;1.58;1.08;;;;;;;;;;5033588;28;20061;-78
2022/09/22 12:46:58;;;;;;;1.52;0.90;;;;;;;;;;5035126;28;20034;-78
2022/09/22 12:49:24;;;;;;;1.40;1.10;;;;;;;;;;5034959;28;20037;-78
2022/09/22 12:51:51;;;;;;;1.60;1.08;;;;;;;;;;5032082;28;20148;-78
2022/09/22 12:54:26;;;;;;;1.20;0.90;;;;;;;;;;5029782;28;20068;-77
2022/09/22 12:57:10;;;;;;;1.45;1.20;;;;;;;;;;5035384;28;20400;-77
2022/09/22 12:59:36;;;;;;;2.00;1.00;;;;;;;;;;5015496;28;20066;-80
2022/09/22 13:02:15;;;;;;;1.52;0.98;;;;;;;;;;5013474;28;20037;-82
2022/09/22 13:04:41;;;;;;;1.88;1.30;;;;;;;;;;5014184;28;20080;-80
2022/09/22 13:07:26;;;;;;;1.35;1.05;;;;;;;;;;5030877;28;20053;-79
2022/09/22 13:10:11;;;;;;;0.90;0.80;;;;;;;;;;5015364;28;20105;-76
2022/09/22 13:12:37;;;;;;;1.88;1.00;;;;;;;;;;5015733;28;20104;-81
2022/09/22 13:15:06;;;;;;;1.00;0.88;;;;;;;;;;5030375;28;20031;-80
2022/09/22 13:17:33;;;;;;;1.30;1.10;;;;;;;;;;5054267;28;20063;-79
2022/09/22 13:20:01;;;;;;;1.38;0.90;;;;;;;;;;5054404;28;20476;-80
2022/09/22 13:22:27;;;;;;;1.08;0.98;;;;;;;;;;5054513;28;20044;-79
2022/09/22 13:24:53;;;;;;;2.42;1.40;;;;;;;;;;5054791;28;20052;-80
2022/09/22 13:27:19;;;;;;;3.10;2.22;;;;;;;;;;5054728;28;20087;-80
2022/09/22 13:30:04;;;;;;;1.17;0.90;;;;;;;;;;5054544;28;20029;-79
2022/09/22 13:32:30;;;;;;;1.13;1.02;;;;;;;;;;5054708;28;20029;-80
2022/09/22 13:34:56;;;;;;;1.13;0.85;;;;;;;;;;5054790;28;20392;-78
2022/09/22 13:37:23;;;;;;;1.17;0.93;;;;;;;;;;5053248;28;20439;-81
2022/09/22 13:39:51;;;;;;;1.20;1.08;;;;;;;;;;5054624;28;20079;-78
2022/09/22 13:42:21;;;;;;;1.02;0.93;;;;;;;;;;5054563;28;20045;-77
2022/09/22 13:44:51;;;;;;;0.90;0.90;;;;;;;;;;5054257;28;20044;-78
2022/09/22 13:47:19;;;;;;;1.58;0.90;;;;;;;;;;5054469;28;20116;-80
2022/09/22 13:49:50;;;;;;;1.50;0.73;;;;;;;;;;5053018;28;20033;-83
2022/09/22 13:52:35;;;;;;;1.40;1.02;;;;;;;;;;5055422;28;20051;-81
2022/09/22 13:55:17;;;;;;;1.00;0.73;;;;;;;;;;5054475;28;20443;-79
2022/09/22 13:57:43;;;;;;;1.17;0.90;;;;;;;;;;5054405;28;20033;-82
2022/09/22 14:00:19;;;;;;;1.20;1.10;;;;;;;;;;5054431;28;20040;-79
2022/09/22 14:02:45;;;;;;;1.13;0.95;;;;;;;;;;5054276;28;20033;-79
2022/09/22 14:05:23;;;;;;;1.70;0.70;;;;;;;;;;5054801;28;20159;-80
2022/09/22 14:07:49;;;;;;;0.90;0.80;;;;;;;;;;5054903;28;20431;-80
2022/09/22 14:10:18;;;;;;;0.93;0.85;;;;;;;;;;5055067;28;20086;-81
2022/09/22 14:12:44;;;;;;;0.75;0.75;;;;;;;;;;5054888;28;20044;-78
2022/09/22 14:15:29;;;;;;;1.15;0.90;;;;;;;;;;5055022;28;20048;-77
2022/09/22 14:17:57;;;;;;;0.95;0.68;;;;;;;;;;5054821;28;20033;-78
2022/09/22 14:20:25;;;;;;;1.67;0.80;;;;;;;;;;5054753;28;20029;-78
2022/09/22 14:22:51;;;;;;;1.90;0.80;;;;;;;;;;5054620;28;20090;-78
2022/09/22 14:25:19;;;;;;;1.10;0.90;;;;;;;;;;5054070;28;20067;-76
2022/09/22 14:27:52;;;;;;;1.00;0.73;;;;;;;;;;5054710;28;20583;-79
2022/09/22 14:30:19;;;;;;;1.33;1.10;;;;;;;;;;5037231;28;20036;-75
2022/09/22 14:32:48;;;;;;;1.13;0.98;;;;;;;;;;5046443;28;20040;-78
2022/09/22 14:35:22;;;;;;;3.80;1.25;;;;;;;;;;5044946;28;20066;-78
2022/09/22 14:37:49;;;;;;;1.13;1.02;;;;;;;;;;5044577;28;20068;-78
2022/09/22 14:40:23;;;;;;;1.75;1.05;;;;;;;;;;5042924;28;20477;-78
2022/09/22 14:43:04;;;;;;;1.90;1.10;;;;;;;;;;5040685;28;20049;-78
2022/09/22 14:45:31;;;;;;;1.13;1.02;;;;;;;;;;5043371;28;20048;-78
2022/09/22 14:48:12;;;;;;;1.70;1.55;;;;;;;;;;5043353;28;20056;-77
2022/09/22 14:50:38;;;;;;;2.22;1.52;;;;;;;;;;5040647;28;20427;-78
2022/09/22 14:53:23;;;;;;;1.70;1.50;;;;;;;;;;5042280;28;20029;-74
2022/09/22 14:55:49;;;;;;;;;;;;;;;;;;5043639;28;20060;-77
2022/09/22 14:58:16;;;;;;;1.70;1.20;;;;;;;;;;5042221;28;20450;-78
2022/09/22 15:03:59;;;;;;;2.30;1.60;;;;;;;;;;5032975;28;20091;-78
2022/09/22 15:06:30;;;;;;;1.85;1.63;;;;;;;;;;5033069;28;20048;-78
2022/09/22 15:08:59;;;;;;;1.77;1.67;;;;;;;;;;5035484;28;20037;-76
2022/09/22 15:11:46;;;;;;;4.25;1.90;;;;;;;;;;5052138;28;20029;-77
2022/09/22 15:14:41;;;;;;;1.98;1.75;;;;;;;;;;5050768;28;20033;-78
2022/09/22 15:20:13;;;;;;;2.60;2.00;;;;;;;;;;5052289;28;20090;-79
2022/09/22 15:22:39;;;;;;;2.13;1.70;;;;;;;;;;5052979;28;20033;-77
2022/09/22 15:25:06;;;;;;;2.17;1.90;;;;;;;;;;5038411;28;20049;-76
2022/09/22 15:27:32;;;;;;;2.80;2.20;;;;;;;;;;5038858;28;20037;-77
2022/09/22 15:29:58;;;;;;;2.00;1.80;;;;;;;;;;5033753;28;20040;-78
2022/09/22 15:32:24;;;;;;;2.40;2.20;;;;;;;;;;5033965;28;20496;-78
2022/09/22 15:34:50;;;;;;;2.78;2.58;;;;;;;;;;5033458;28;20124;-78